Time;durP1;ratioP1;P1;durP2;ratioP2;P2;SDS_P1;SDS_P2;PMS_P1;PMS_P2;Temp;Humidity;BMP_temperature;BMP_pressure;BME280_temperature;BME280_humidity;BME280_pressure;Samples;Min_cycle;Max_cycle;Signal;HPM_P1;HPM_P2
2021/10/20 00:02:22;;;;;;;3.37;1.00;;;19.60;99.90;;;;;;5077353;28;20632;-74
2021/10/20 00:04:49;;;;;;;4.20;1.37;;;19.60;99.90;;;;;;5092842;28;20189;-73
2021/10/20 00:07:17;;;;;;;6.43;0.87;;;19.90;99.90;;;;;;5091965;28;20676;-73
2021/10/20 00:09:44;;;;;;;1.47;0.60;;;20.50;99.90;;;;;;5089645;28;20555;-73
2021/10/20 00:12:11;;;;;;;2.93;0.70;;;21.20;99.90;;;;;;5093164;28;20213;-74
2021/10/20 00:14:39;;;;;;;7.90;1.00;;;21.30;99.90;;;;;;5093682;28;20245;-72
2021/10/20 00:17:06;;;;;;;4.27;0.83;;;21.00;99.90;;;;;;5093371;28;20178;-71
2021/10/20 00:19:34;;;;;;;5.23;1.20;;;20.80;99.90;;;;;;5093244;28;20232;-74
2021/10/20 00:22:01;;;;;;;7.80;1.10;;;21.10;99.90;;;;;;5093045;28;20676;-73
2021/10/20 00:24:29;;;;;;;5.57;1.40;;;21.30;99.90;;;;;;5093120;28;20624;-74
2021/10/20 00:26:56;;;;;;;4.23;0.93;;;21.40;99.90;;;;;;5093391;28;20186;-73
2021/10/20 00:29:23;;;;;;;3.87;0.97;;;21.40;99.90;;;;;;5089052;28;20186;-71
2021/10/20 00:31:51;;;;;;;5.90;1.33;;;21.00;99.90;;;;;;5092689;28;20218;-75
2021/10/20 00:34:18;;;;;;;3.37;0.90;;;20.60;99.90;;;;;;5082809;28;20232;-73
2021/10/20 00:36:45;;;;;;;3.07;0.90;;;20.40;99.90;;;;;;5092548;28;20194;-73
2021/10/20 00:39:13;;;;;;;1.47;0.70;;;20.70;99.90;;;;;;5091391;28;20187;-72
2021/10/20 00:41:40;;;;;;;2.43;0.80;;;20.80;99.90;;;;;;5080971;28;20195;-72
2021/10/20 00:44:07;;;;;;;4.90;1.00;;;21.50;99.90;;;;;;5086902;28;20185;-75
2021/10/20 00:46:35;;;;;;;1.83;0.83;;;21.90;99.90;;;;;;5098791;28;20230;-77
2021/10/20 00:49:02;;;;;;;2.33;0.67;;;22.20;98.80;;;;;;5091956;28;20589;-78
2021/10/20 00:51:30;;;;;;;4.27;1.00;;;21.60;99.90;;;;;;5079284;28;20223;-75
2021/10/20 00:53:58;;;;;;;4.03;0.87;;;21.40;99.90;;;;;;5095630;28;20278;-73
2021/10/20 00:56:26;;;;;;;3.80;0.77;;;21.70;99.90;;;;;;5092490;28;20324;-72
2021/10/20 00:58:55;;;;;;;2.03;0.60;;;22.10;99.00;;;;;;5092086;28;20182;-74
2021/10/20 01:01:22;;;;;;;4.57;0.53;;;22.70;98.30;;;;;;5092878;28;20182;-71
2021/10/20 01:03:50;;;;;;;2.47;0.60;;;22.90;97.40;;;;;;5091999;28;20640;-73
2021/10/20 01:06:18;;;;;;;3.47;0.80;;;22.80;97.30;;;;;;5092908;28;20178;-73
2021/10/20 01:08:46;;;;;;;4.30;0.87;;;22.30;97.50;;;;;;5080636;28;20200;-74
2021/10/20 01:11:14;;;;;;;4.47;0.73;;;21.80;98.00;;;;;;5088670;28;20210;-72
2021/10/20 01:13:42;;;;;;;3.90;0.80;;;21.70;98.70;;;;;;5083738;28;20661;-73
2021/10/20 01:16:09;;;;;;;2.37;0.70;;;21.70;99.30;;;;;;5076959;28;20185;-76
2021/10/20 01:18:37;;;;;;;6.40;0.83;;;21.30;99.90;;;;;;5092029;28;20186;-72
2021/10/20 01:21:04;;;;;;;6.03;0.87;;;21.20;99.50;;;;;;5093143;28;20274;-68
2021/10/20 01:23:32;;;;;;;2.10;0.57;;;21.10;99.50;;;;;;5094380;28;20593;-75
2021/10/20 01:25:59;;;;;;;3.20;0.77;;;21.50;98.70;;;;;;5091708;28;20265;-73
2021/10/20 01:28:26;;;;;;;3.23;0.60;;;22.00;98.00;;;;;;5087616;28;20190;-74
2021/10/20 01:30:54;;;;;;;3.23;0.90;;;22.50;98.10;;;;;;5092401;28;20218;-72
2021/10/20 01:33:21;;;;;;;3.80;0.60;;;22.60;98.00;;;;;;5092588;28;20203;-71
2021/10/20 01:35:48;;;;;;;2.77;0.60;;;22.50;99.00;;;;;;5091878;28;20247;-72
2021/10/20 01:38:16;;;;;;;5.27;0.90;;;22.60;98.70;;;;;;5091562;28;20194;-75
2021/10/20 01:40:43;;;;;;;3.17;0.60;;;23.00;97.90;;;;;;5092216;28;20372;-72
2021/10/20 01:43:11;;;;;;;3.63;0.80;;;23.20;97.20;;;;;;5092492;28;20186;-76
2021/10/20 01:45:38;;;;;;;2.33;0.73;;;23.50;97.10;;;;;;5091954;28;20637;-73
2021/10/20 01:48:06;;;;;;;3.10;0.60;;;23.80;96.80;;;;;;5091557;28;20655;-78
2021/10/20 01:50:33;;;;;;;3.23;0.80;;;23.80;96.00;;;;;;5092275;28;20186;-75
2021/10/20 01:53:00;;;;;;;4.57;0.70;;;23.80;95.90;;;;;;5091866;28;20194;-76
2021/10/20 01:55:28;;;;;;;2.40;0.50;;;24.00;94.90;;;;;;5092340;28;20178;-73
2021/10/20 01:57:55;;;;;;;1.63;0.80;;;24.00;94.90;;;;;;5079598;28;20215;-77
2021/10/20 02:00:23;;;;;;;4.93;0.60;;;24.10;94.70;;;;;;5072474;28;20179;-74
2021/10/20 02:02:50;;;;;;;5.80;0.70;;;24.20;94.70;;;;;;5089563;28;20232;-76
2021/10/20 02:05:18;;;;;;;2.53;0.60;;;24.40;94.00;;;;;;5089838;28;20242;-76
2021/10/20 02:07:45;;;;;;;3.67;0.57;;;24.20;94.30;;;;;;5091573;28;20189;-71
2021/10/20 02:10:14;;;;;;;5.17;1.17;;;23.70;94.60;;;;;;5091867;28;20656;-74
2021/10/20 02:12:42;;;;;;;3.03;0.70;;;23.50;95.10;;;;;;5091878;28;20231;-74
2021/10/20 02:15:10;;;;;;;2.67;0.60;;;23.70;94.40;;;;;;5085720;28;20261;-73
2021/10/20 02:17:37;;;;;;;3.80;0.67;;;23.90;94.60;;;;;;5086710;28;20769;-72
2021/10/20 02:20:13;;;;;;;2.63;0.53;;;23.70;94.60;;;;;;5086547;28;20186;-74
2021/10/20 02:22:41;;;;;;;3.63;0.80;;;23.90;94.30;;;;;;5089523;28;20186;-74
2021/10/20 02:25:10;;;;;;;2.47;0.70;;;23.80;94.10;;;;;;5089951;28;20196;-75
2021/10/20 02:27:38;;;;;;;1.83;0.53;;;24.40;94.00;;;;;;5089500;28;20613;-75
2021/10/20 02:30:08;;;;;;;5.27;0.90;;;24.60;93.40;;;;;;5089448;28;20557;-78
2021/10/20 02:32:35;;;;;;;3.63;0.77;;;24.00;93.80;;;;;;5084075;28;20690;-80
2021/10/20 02:35:04;;;;;;;7.57;0.63;;;23.80;94.10;;;;;;5089450;28;20542;-74
2021/10/20 02:37:32;;;;;;;3.40;0.80;;;24.50;93.70;;;;;;5090636;28;20206;-77
2021/10/20 02:39:59;;;;;;;4.80;1.00;;;25.20;93.10;;;;;;5090536;28;20638;-74
2021/10/20 02:42:27;;;;;;;3.03;0.70;;;24.70;93.10;;;;;;5091196;28;20229;-73
2021/10/20 02:44:54;;;;;;;3.97;0.90;;;24.50;92.50;;;;;;5090631;28;20179;-75
2021/10/20 02:47:22;;;;;;;2.73;0.80;;;24.40;93.10;;;;;;5092811;28;20336;-73
2021/10/20 02:49:49;;;;;;;1.63;0.60;;;24.80;93.10;;;;;;5089231;28;20555;-75
2021/10/20 02:52:18;;;;;;;4.00;0.90;;;24.80;92.60;;;;;;5089692;28;20218;-74
2021/10/20 02:54:46;;;;;;;1.57;0.67;;;25.20;91.60;;;;;;5090409;28;20182;-75
2021/10/20 02:57:13;;;;;;;2.57;0.60;;;25.00;91.70;;;;;;5083301;28;20585;-76
2021/10/20 02:59:40;;;;;;;1.90;0.53;;;25.40;91.60;;;;;;5087945;28;20178;-76
2021/10/20 03:02:08;;;;;;;2.30;0.50;;;25.70;91.10;;;;;;5093987;28;20186;-73
2021/10/20 03:04:35;;;;;;;5.10;0.70;;;25.80;90.10;;;;;;5094437;28;20179;-75
2021/10/20 03:07:03;;;;;;;5.57;0.90;;;25.70;91.40;;;;;;5089640;28;20187;-70
2021/10/20 03:09:30;;;;;;;6.73;0.90;;;25.50;92.00;;;;;;5094423;28;20174;-73
2021/10/20 03:11:57;;;;;;;4.10;0.90;;;25.30;91.80;;;;;;5089875;28;20578;-76
2021/10/20 03:14:25;;;;;;;1.47;0.57;;;25.20;91.40;;;;;;5094878;28;20245;-71
2021/10/20 03:16:52;;;;;;;7.00;1.10;;;25.60;91.10;;;;;;5094208;28;20174;-74
2021/10/20 03:19:19;;;;;;;3.10;0.90;;;26.10;90.80;;;;;;5088871;28;20178;-73
2021/10/20 03:21:47;;;;;;;3.80;0.80;;;26.20;90.80;;;;;;5094752;28;20190;-76
2021/10/20 03:24:15;;;;;;;4.27;0.93;;;26.60;91.10;;;;;;5093172;28;20170;-74
2021/10/20 03:26:42;;;;;;;2.93;0.70;;;25.60;91.20;;;;;;5094924;28;20185;-78
2021/10/20 03:29:09;;;;;;;2.73;0.70;;;24.90;91.80;;;;;;5086616;28;20231;-79
2021/10/20 03:31:36;;;;;;;6.37;1.33;;;25.40;91.70;;;;;;5089158;28;20210;-79
2021/10/20 03:34:04;;;;;;;3.20;0.60;;;25.90;92.00;;;;;;5085328;28;20260;-77
2021/10/20 03:36:34;;;;;;;5.20;1.00;;;26.20;91.60;;;;;;5094841;28;20185;-76
2021/10/20 03:39:01;;;;;;;5.60;0.83;;;25.90;91.70;;;;;;5090153;28;20206;-77
2021/10/20 03:41:29;;;;;;;3.87;0.93;;;25.20;92.20;;;;;;5093931;28;20288;-76
2021/10/20 03:43:56;;;;;;;6.90;1.10;;;25.20;92.40;;;;;;5092212;28;20187;-75
2021/10/20 03:46:23;;;;;;;5.57;0.80;;;24.80;93.10;;;;;;5088541;28;20270;-78
2021/10/20 03:48:51;;;;;;;1.03;0.57;;;25.70;92.50;;;;;;5091379;28;20589;-79
2021/10/20 03:51:18;;;;;;;1.77;0.57;;;26.10;88.50;;;;;;5091882;28;20314;-76
2021/10/20 03:53:45;;;;;;;3.00;1.00;;;26.50;86.10;;;;;;5091615;28;20587;-76
2021/10/20 03:56:13;;;;;;;4.97;0.90;;;26.60;85.70;;;;;;5091690;28;20209;-79
2021/10/20 03:58:40;;;;;;;3.13;0.80;;;26.70;85.20;;;;;;5093298;28;20585;-78
2021/10/20 04:01:08;;;;;;;1.20;0.50;;;27.30;85.50;;;;;;5091429;28;20193;-83
2021/10/20 04:03:37;;;;;;;2.17;0.67;;;27.40;86.00;;;;;;5092609;28;20232;-77
2021/10/20 04:06:04;;;;;;;3.60;0.80;;;27.50;86.10;;;;;;5086804;28;20290;-77
2021/10/20 04:08:32;;;;;;;4.70;0.80;;;27.60;86.80;;;;;;5087291;28;20174;-83
2021/10/20 04:10:59;;;;;;;3.23;0.70;;;27.70;86.60;;;;;;5084093;28;20206;-82
2021/10/20 04:13:26;;;;;;;4.13;0.80;;;27.60;85.00;;;;;;5091337;28;20536;-78
2021/10/20 04:15:53;;;;;;;4.23;0.80;;;26.90;86.80;;;;;;5087332;28;20186;-79
2021/10/20 04:18:21;;;;;;;3.30;0.80;;;25.90;88.90;;;;;;5090436;28;20183;-80
2021/10/20 04:20:48;;;;;;;3.07;0.67;;;25.90;90.40;;;;;;5089871;28;20179;-80
2021/10/20 04:23:16;;;;;;;3.43;0.70;;;26.90;90.00;;;;;;5092581;28;20261;-78
2021/10/20 04:25:43;;;;;;;2.77;0.70;;;26.10;90.20;;;;;;5092891;28;20292;-82
2021/10/20 04:28:10;;;;;;;3.97;0.97;;;25.70;90.60;;;;;;5091755;28;20287;-81
2021/10/20 04:30:38;;;;;;;2.37;0.63;;;25.00;91.20;;;;;;5090961;28;20539;-77
2021/10/20 04:33:05;;;;;;;8.30;0.90;;;24.80;92.30;;;;;;5092478;28;20183;-81
2021/10/20 04:35:32;;;;;;;2.20;0.80;;;24.30;93.20;;;;;;5092567;28;20182;-80
2021/10/20 04:38:01;;;;;;;5.03;1.03;;;24.70;93.30;;;;;;5089528;28;20189;-78
2021/10/20 04:40:28;;;;;;;3.17;0.80;;;25.20;93.10;;;;;;5095089;28;20185;-79
2021/10/20 04:42:57;;;;;;;6.00;0.80;;;25.80;92.60;;;;;;5092141;28;20266;-78
2021/10/20 04:45:24;;;;;;;3.30;0.87;;;26.70;91.70;;;;;;5091889;28;20178;-78
2021/10/20 04:47:51;;;;;;;2.77;0.97;;;26.90;91.10;;;;;;5091351;28;20660;-77
2021/10/20 04:50:19;;;;;;;3.13;0.80;;;27.40;90.60;;;;;;5091299;28;20538;-79
2021/10/20 04:52:46;;;;;;;1.93;0.80;;;27.10;90.60;;;;;;5089094;28;20656;-79
2021/10/20 04:55:14;;;;;;;5.43;0.83;;;27.10;91.30;;;;;;5087895;28;20190;-80
2021/10/20 04:57:41;;;;;;;2.67;0.80;;;27.30;90.20;;;;;;5090132;28;20186;-77
2021/10/20 05:00:09;;;;;;;2.23;0.97;;;27.40;88.20;;;;;;5091910;28;20182;-81
2021/10/20 05:02:36;;;;;;;2.93;0.50;;;27.40;86.40;;;;;;5091970;28;20183;-78
2021/10/20 05:05:07;;;;;;;3.60;0.60;;;27.60;85.70;;;;;;5097207;28;20548;-75
2021/10/20 05:07:47;;;;;;;2.40;0.63;;;27.50;85.30;;;;;;5088269;28;20232;-78
2021/10/20 05:10:14;;;;;;;3.37;0.80;;;27.00;88.10;;;;;;5085317;28;20174;-79
2021/10/20 05:12:42;;;;;;;1.97;0.70;;;27.50;86.60;;;;;;5092030;28;20692;-78
2021/10/20 05:15:11;;;;;;;5.87;0.70;;;27.60;86.90;;;;;;5092209;28;20247;-80
2021/10/20 05:17:40;;;;;;;7.33;0.70;;;27.90;86.90;;;;;;5089911;28;20182;-74
2021/10/20 05:20:09;;;;;;;5.10;0.77;;;28.10;85.80;;;;;;5084312;28;20547;-76
2021/10/20 05:22:37;;;;;;;2.77;0.60;;;28.30;85.60;;;;;;5089927;28;20174;-75
2021/10/20 05:25:07;;;;;;;2.73;0.83;;;28.30;85.90;;;;;;5088929;28;20261;-75
2021/10/20 05:27:35;;;;;;;2.57;0.90;;;27.90;86.60;;;;;;5098064;28;20666;-74
2021/10/20 05:30:02;;;;;;;2.13;0.70;;;28.40;87.50;;;;;;5088395;28;20205;-73
2021/10/20 05:32:30;;;;;;;4.57;0.83;;;28.10;87.80;;;;;;5083204;28;20206;-73
2021/10/20 05:34:58;;;;;;;4.97;0.97;;;27.60;89.70;;;;;;5088228;28;20187;-74
2021/10/20 05:37:26;;;;;;;2.30;0.77;;;27.90;90.70;;;;;;5072220;28;20545;-71
2021/10/20 05:39:53;;;;;;;2.93;1.00;;;28.20;90.20;;;;;;5079668;28;20177;-73
2021/10/20 05:42:21;;;;;;;5.80;0.67;;;28.40;89.90;;;;;;5090963;28;20253;-74
2021/10/20 05:44:49;;;;;;;3.87;0.70;;;28.30;89.00;;;;;;5091250;28;20705;-75
2021/10/20 05:47:18;;;;;;;4.37;0.63;;;28.40;89.10;;;;;;5090235;28;20543;-74
2021/10/20 05:49:47;;;;;;;4.30;0.90;;;29.10;87.20;;;;;;5089400;28;20171;-74
2021/10/20 05:52:14;;;;;;;6.10;1.00;;;29.00;87.10;;;;;;5089829;28;20214;-77
2021/10/20 05:54:41;;;;;;;2.93;0.87;;;28.60;88.00;;;;;;5088883;28;20269;-73
2021/10/20 05:57:09;;;;;;;4.00;0.90;;;29.30;87.70;;;;;;5091299;28;20182;-74
2021/10/20 05:59:36;;;;;;;2.03;0.80;;;29.50;86.40;;;;;;5090976;28;20235;-76
2021/10/20 06:02:03;;;;;;;2.40;0.65;;;29.40;86.70;;;;;;5090905;28;20236;-75
2021/10/20 06:04:31;;;;;;;1.57;0.50;;;29.10;87.30;;;;;;5088920;28;20531;-76
2021/10/20 06:06:58;;;;;;;3.73;0.73;;;29.70;86.50;;;;;;5090735;28;20301;-76
2021/10/20 06:09:25;;;;;;;1.97;0.90;;;29.90;85.30;;;;;;5089945;28;20183;-72
2021/10/20 06:11:53;;;;;;;3.43;0.80;;;28.50;85.80;;;;;;5091130;28;20206;-74
2021/10/20 06:14:21;;;;;;;3.43;0.70;;;28.40;86.60;;;;;;5090974;28;20226;-76
2021/10/20 06:16:48;;;;;;;2.63;0.70;;;27.40;86.90;;;;;;5090482;28;20219;-74
2021/10/20 06:19:15;;;;;;;3.00;0.70;;;26.80;88.50;;;;;;5090465;28;20259;-71
2021/10/20 06:21:43;;;;;;;2.80;0.93;;;26.70;89.00;;;;;;5090270;28;20236;-73
2021/10/20 06:24:10;;;;;;;7.13;0.93;;;27.00;89.90;;;;;;5090766;28;20170;-76
2021/10/20 06:26:38;;;;;;;3.17;0.63;;;27.50;88.30;;;;;;5085566;28;20259;-73
2021/10/20 06:29:05;;;;;;;2.37;0.60;;;27.10;89.40;;;;;;5089694;28;20192;-74
2021/10/20 06:31:33;;;;;;;2.60;0.50;;;27.60;88.60;;;;;;5086604;28;20373;-74
2021/10/20 06:34:00;;;;;;;2.87;0.70;;;27.60;88.10;;;;;;5090943;28;20178;-74
2021/10/20 06:36:33;;;;;;;2.83;0.67;;;27.10;89.40;;;;;;5091630;28;20175;-73
2021/10/20 06:39:00;;;;;;;4.60;0.90;;;26.80;90.10;;;;;;5090008;28;20193;-73
2021/10/20 06:41:28;;;;;;;2.87;0.50;;;26.10;90.80;;;;;;5090314;28;20171;-74
2021/10/20 06:43:56;;;;;;;2.83;0.90;;;25.40;91.50;;;;;;5094345;28;20187;-72
2021/10/20 06:46:23;;;;;;;2.70;0.80;;;24.70;92.50;;;;;;5094407;28;20186;-75
2021/10/20 06:48:51;;;;;;;1.80;0.70;;;25.20;92.10;;;;;;5094976;28;20182;-77
2021/10/20 06:51:18;;;;;;;3.23;0.83;;;25.40;91.90;;;;;;5094397;28;20203;-71
2021/10/20 06:53:46;;;;;;;3.13;1.00;;;25.10;91.70;;;;;;5093978;28;20190;-74
2021/10/20 06:56:13;;;;;;;2.37;0.70;;;25.00;92.10;;;;;;5092222;28;20649;-77
2021/10/20 06:58:42;;;;;;;1.47;0.70;;;24.90;92.20;;;;;;5094136;28;20174;-75
2021/10/20 07:01:09;;;;;;;5.63;0.80;;;25.50;91.90;;;;;;5094655;28;20251;-71
2021/10/20 07:03:36;;;;;;;3.73;1.00;;;25.80;91.40;;;;;;5090121;28;20279;-73
2021/10/20 07:06:04;;;;;;;4.37;0.77;;;25.80;91.40;;;;;;5083221;28;20394;-73
2021/10/20 07:08:31;;;;;;;2.43;0.60;;;25.90;91.50;;;;;;5094423;28;20193;-72
2021/10/20 07:10:58;;;;;;;2.53;0.40;;;26.10;91.20;;;;;;5106736;28;20285;-73
2021/10/20 07:13:26;;;;;;;1.63;0.77;;;26.30;91.10;;;;;;5087243;28;20237;-74
2021/10/20 07:15:54;;;;;;;1.83;0.90;;;25.70;91.90;;;;;;5092820;28;20183;-74
2021/10/20 07:18:22;;;;;;;4.50;0.70;;;25.40;92.40;;;;;;5095097;28;20186;-74
2021/10/20 07:20:49;;;;;;;2.70;0.73;;;25.20;92.60;;;;;;5094754;28;20647;-76
2021/10/20 07:23:16;;;;;;;2.73;0.63;;;24.60;93.20;;;;;;5094715;28;20277;-74
2021/10/20 07:25:44;;;;;;;3.80;0.70;;;24.40;93.50;;;;;;5094689;28;20171;-72
2021/10/20 07:28:11;;;;;;;2.63;0.77;;;24.30;93.70;;;;;;5094488;28;20522;-74
2021/10/20 07:30:41;;;;;;;3.07;1.07;;;23.80;94.70;;;;;;5094955;28;20189;-73
2021/10/20 07:33:08;;;;;;;5.20;0.83;;;23.30;95.40;;;;;;5094739;28;20596;-72
2021/10/20 07:35:36;;;;;;;7.23;0.80;;;22.90;95.80;;;;;;5094057;28;20636;-71
2021/10/20 07:38:03;;;;;;;4.70;0.80;;;22.50;96.50;;;;;;5094813;28;20170;-74
2021/10/20 07:40:31;;;;;;;5.03;1.17;;;22.00;97.50;;;;;;5094514;28;20178;-74
2021/10/20 07:42:58;;;;;;;1.83;0.60;;;21.80;98.40;;;;;;5094552;28;20210;-74
2021/10/20 07:45:26;;;;;;;7.50;0.93;;;21.70;99.20;;;;;;5092087;28;20286;-75
2021/10/20 07:47:54;;;;;;;3.80;0.83;;;21.60;99.50;;;;;;5094025;28;20240;-75
2021/10/20 07:50:23;;;;;;;1.97;0.73;;;21.40;99.90;;;;;;5094445;28;20163;-75
2021/10/20 07:52:51;;;;;;;2.67;0.60;;;21.50;99.90;;;;;;5088594;28;20222;-74
2021/10/20 07:55:23;;;;;;;6.07;1.20;;;21.60;99.90;;;;;;5092799;28;20577;-74
2021/10/20 07:57:51;;;;;;;3.00;1.00;;;21.60;99.90;;;;;;5088790;28;20206;-73
2021/10/20 08:00:18;;;;;;;2.87;1.03;;;21.40;99.90;;;;;;5094425;28;20635;-75
2021/10/20 08:02:46;;;;;;;2.60;0.80;;;21.30;99.90;;;;;;5091835;28;20210;-74
2021/10/20 08:05:16;;;;;;;3.90;1.10;;;21.20;99.90;;;;;;5094112;28;20183;-74
2021/10/20 08:07:47;;;;;;;3.73;0.77;;;20.90;99.90;;;;;;5093543;28;20189;-74
2021/10/20 08:10:17;;;;;;;3.43;0.80;;;20.70;99.90;;;;;;5092978;28;20182;-74
2021/10/20 08:12:45;;;;;;;1.93;1.00;;;20.80;99.90;;;;;;5093868;28;20222;-74
2021/10/20 08:15:15;;;;;;;5.53;1.10;;;20.70;99.90;;;;;;5074008;28;20578;-73
2021/10/20 08:17:43;;;;;;;4.67;1.10;;;20.40;99.90;;;;;;5088421;28;20183;-73
2021/10/20 08:20:12;;;;;;;3.63;0.80;;;20.30;99.90;;;;;;5091981;28;20227;-73
2021/10/20 08:22:39;;;;;;;2.37;0.80;;;20.30;99.90;;;;;;5075410;28;20212;-74
2021/10/20 08:25:08;;;;;;;4.97;0.80;;;20.20;99.90;;;;;;5086275;28;20187;-73
2021/10/20 08:27:35;;;;;;;2.10;0.70;;;20.20;99.90;;;;;;5090693;28;20181;-74
2021/10/20 08:30:05;;;;;;;6.60;1.37;;;20.30;99.90;;;;;;5092475;28;20179;-73
2021/10/20 08:32:33;;;;;;;3.93;1.00;;;20.20;99.90;;;;;;5090251;28;20210;-74
2021/10/20 08:35:00;;;;;;;7.30;0.80;;;20.10;99.90;;;;;;5082039;28;20178;-74
2021/10/20 08:37:27;;;;;;;3.63;0.90;;;20.20;99.90;;;;;;5090215;28;20180;-74
2021/10/20 08:39:55;;;;;;;3.37;1.37;;;20.20;99.90;;;;;;5093420;28;20175;-73
2021/10/20 08:42:22;;;;;;;3.97;0.90;;;20.00;99.90;;;;;;5093032;28;20179;-73
2021/10/20 08:44:49;;;;;;;5.07;1.23;;;20.00;99.90;;;;;;5093691;28;20214;-74
2021/10/20 08:47:18;;;;;;;3.57;1.00;;;19.90;99.90;;;;;;5093282;28;20175;-75
2021/10/20 08:49:46;;;;;;;2.93;1.50;;;19.80;99.90;;;;;;5078100;28;20205;-75
2021/10/20 08:52:14;;;;;;;5.10;1.57;;;19.80;99.90;;;;;;5091375;28;20710;-73
2021/10/20 08:54:41;;;;;;;2.70;1.40;;;19.80;99.90;;;;;;5093352;28;20169;-75
2021/10/20 08:57:09;;;;;;;2.77;1.30;;;19.70;99.90;;;;;;5093263;28;20584;-75
2021/10/20 08:59:36;;;;;;;2.17;1.00;;;19.70;99.90;;;;;;5088053;28;20725;-74
2021/10/20 09:02:07;;;;;;;3.10;1.10;;;19.60;99.90;;;;;;5082150;28;20648;-74
2021/10/20 09:04:35;;;;;;;6.60;1.20;;;19.60;99.90;;;;;;5093217;28;20618;-74
2021/10/20 09:07:12;;;;;;;3.97;0.90;;;19.50;99.90;;;;;;5090964;28;20179;-74
2021/10/20 09:09:40;;;;;;;2.83;1.10;;;19.50;99.90;;;;;;5082055;28;20274;-75
2021/10/20 09:12:07;;;;;;;3.87;0.93;;;19.40;99.90;;;;;;5089081;28;20214;-75
2021/10/20 09:14:35;;;;;;;3.17;0.97;;;19.40;99.90;;;;;;5091016;28;20190;-75
2021/10/20 09:17:05;;;;;;;3.77;1.23;;;19.40;99.90;;;;;;5091998;28;20193;-75
2021/10/20 09:19:34;;;;;;;3.33;1.10;;;19.30;99.90;;;;;;5092130;28;20563;-73
2021/10/20 09:22:09;;;;;;;8.07;1.67;;;19.20;99.90;;;;;;5090699;28;20257;-75
2021/10/20 09:24:40;;;;;;;5.27;0.97;;;19.20;99.90;;;;;;5091336;28;20186;-75
2021/10/20 09:27:27;;;;;;;3.83;1.40;;;19.20;99.90;;;;;;5073181;28;20179;-75
2021/10/20 09:30:14;;;;;;;4.63;1.70;;;19.10;99.90;;;;;;5091327;28;20182;-74
2021/10/20 09:32:42;;;;;;;5.17;1.33;;;19.20;99.90;;;;;;5091262;28;20296;-75
2021/10/20 09:35:11;;;;;;;2.47;0.93;;;19.20;99.90;;;;;;5086695;28;20210;-74
2021/10/20 09:37:42;;;;;;;3.30;1.23;;;19.10;99.90;;;;;;5088135;28;20234;-75
2021/10/20 09:40:13;;;;;;;3.30;1.87;;;19.10;99.90;;;;;;5090295;28;20206;-75
2021/10/20 09:42:58;;;;;;;2.77;1.00;;;19.00;99.90;;;;;;5092287;28;20258;-74
2021/10/20 09:45:25;;;;;;;2.73;1.00;;;19.00;99.90;;;;;;5092810;28;20629;-74
2021/10/20 09:47:55;;;;;;;2.73;1.07;;;19.00;99.90;;;;;;5092238;28;20217;-74
2021/10/20 09:50:22;;;;;;;3.90;1.20;;;19.00;99.90;;;;;;5092288;28;20232;-74
2021/10/20 09:52:53;;;;;;;7.47;1.20;;;18.90;99.90;;;;;;5091797;28;20218;-75
2021/10/20 09:55:29;;;;;;;3.63;1.10;;;18.90;99.90;;;;;;5092438;28;20205;-75
2021/10/20 09:58:02;;;;;;;9.47;6.93;;;18.90;99.90;;;;;;5091653;28;20182;-75
2021/10/20 10:00:30;;;;;;;7.63;4.87;;;18.80;99.90;;;;;;5092418;28;20170;-75
2021/10/20 10:02:58;;;;;;;9.30;2.13;;;18.90;99.90;;;;;;5092380;28;20181;-75
2021/10/20 10:05:27;;;;;;;4.10;2.07;;;18.80;99.90;;;;;;5091855;28;20205;-75
2021/10/20 10:07:55;;;;;;;2.50;1.30;;;18.80;99.90;;;;;;5092185;28;20625;-75
2021/10/20 10:10:22;;;;;;;3.83;1.30;;;18.80;99.90;;;;;;5093390;28;20227;-74
2021/10/20 10:12:54;;;;;;;6.23;1.70;;;18.80;99.90;;;;;;5095268;28;20234;-75
2021/10/20 10:15:23;;;;;;;3.93;1.20;;;18.70;99.90;;;;;;5082086;28;20647;-74
2021/10/20 10:17:55;;;;;;;4.10;1.23;;;18.80;99.90;;;;;;5096136;28;20182;-74
2021/10/20 10:20:27;;;;;;;6.27;1.13;;;18.80;99.90;;;;;;5095812;28;20193;-74
2021/10/20 10:23:02;;;;;;;5.97;1.20;;;18.80;99.90;;;;;;5096430;28;20179;-74
2021/10/20 10:25:34;;;;;;;5.77;1.30;;;18.70;99.90;;;;;;5093616;28;20173;-74
2021/10/20 10:28:05;;;;;;;7.07;1.47;;;18.70;99.90;;;;;;5084040;28;20228;-73
2021/10/20 10:30:53;;;;;;;2.93;1.30;;;18.60;99.90;;;;;;5087584;28;20194;-74
2021/10/20 10:33:28;;;;;;;5.37;1.10;;;18.60;99.90;;;;;;5095793;28;20190;-74
2021/10/20 10:36:13;;;;;;;4.43;1.10;;;18.50;99.90;;;;;;5085490;28;20322;-74
2021/10/20 10:38:44;;;;;;;5.53;1.50;;;18.50;99.90;;;;;;5087733;28;20186;-75
2021/10/20 10:41:23;;;;;;;5.73;1.40;;;18.40;99.90;;;;;;5095849;28;20182;-74
2021/10/20 10:44:09;;;;;;;4.82;1.40;;;18.40;99.90;;;;;;5094697;28;20387;-74
2021/10/20 10:46:39;;;;;;;5.07;1.47;;;18.30;99.90;;;;;;5081017;28;20190;-74
2021/10/20 10:49:22;;;;;;;6.20;1.43;;;18.30;99.90;;;;;;5095424;28;20185;-74
2021/10/20 10:52:25;;;;;;;7.37;1.63;;;18.20;99.90;;;;;;5095240;28;20302;-74
2021/10/20 10:54:56;;;;;;;8.73;1.47;;;18.20;99.90;;;;;;5094957;28;20257;-74
2021/10/20 10:57:24;;;;;;;6.33;1.63;;;18.20;99.90;;;;;;5095188;28;20679;-74
2021/10/20 11:00:32;;;;;;;4.67;1.50;;;18.20;99.90;;;;;;5094817;28;20703;-74
2021/10/20 11:03:13;;;;;;;1.97;1.20;;;18.20;99.90;;;;;;5077063;28;20195;-75
2021/10/20 11:05:48;;;;;;;3.87;0.97;;;18.20;99.90;;;;;;5094939;28;20189;-75
2021/10/20 11:08:16;;;;;;;5.40;1.40;;;18.10;99.90;;;;;;5094227;28;20179;-74
2021/10/20 11:10:44;;;;;;;4.20;1.53;;;18.10;99.90;;;;;;5093851;28;20214;-74
2021/10/20 11:13:13;;;;;;;4.27;1.10;;;18.10;99.90;;;;;;5092490;28;20240;-75
2021/10/20 11:15:41;;;;;;;3.30;1.10;;;18.10;99.90;;;;;;5093162;28;20205;-74
2021/10/20 11:18:09;;;;;;;5.97;1.10;;;18.10;99.90;;;;;;5094449;28;20269;-73
2021/10/20 11:20:42;;;;;;;7.50;2.00;;;18.00;99.90;;;;;;5092835;28;20688;-74
2021/10/20 11:23:13;;;;;;;5.13;1.10;;;18.00;99.90;;;;;;5089098;28;20187;-74
2021/10/20 11:25:44;;;;;;;6.20;1.40;;;17.90;99.90;;;;;;5080792;28;20178;-74
2021/10/20 11:28:12;;;;;;;4.90;1.40;;;18.00;99.90;;;;;;5089550;28;20182;-74
2021/10/20 11:30:40;;;;;;;3.63;1.30;;;17.90;99.90;;;;;;5093981;28;20185;-75
2021/10/20 11:33:15;;;;;;;3.33;1.00;;;17.90;99.90;;;;;;5093642;28;20206;-74
2021/10/20 11:35:44;;;;;;;6.57;1.40;;;17.80;99.90;;;;;;5092469;28;20185;-74
2021/10/20 11:38:19;;;;;;;5.47;1.40;;;17.80;99.90;;;;;;5095021;28;20183;-74
2021/10/20 11:40:54;;;;;;;3.97;1.40;;;17.80;99.90;;;;;;5094313;28;20189;-75
2021/10/20 11:43:27;;;;;;;5.30;1.10;;;17.80;99.90;;;;;;5094252;28;20245;-75
2021/10/20 11:45:55;;;;;;;3.90;1.53;;;17.80;99.90;;;;;;5094226;28;20194;-75
2021/10/20 11:48:24;;;;;;;9.10;1.67;;;17.70;99.90;;;;;;5094636;28;20183;-74
2021/10/20 11:50:53;;;;;;;2.77;1.07;;;17.70;99.90;;;;;;5093919;28;20269;-75
2021/10/20 11:53:21;;;;;;;4.60;1.30;;;17.70;99.90;;;;;;5094690;28;20183;-75
2021/10/20 11:55:53;;;;;;;5.10;1.23;;;17.80;99.90;;;;;;5094090;28;20648;-75
2021/10/20 11:58:23;;;;;;;3.97;1.33;;;17.70;99.90;;;;;;5094018;28;20182;-75
2021/10/20 12:00:58;;;;;;;2.93;1.00;;;17.70;99.90;;;;;;5094482;28;20268;-75
2021/10/20 12:03:44;;;;;;;5.57;1.20;;;17.70;99.90;;;;;;5094395;28;20319;-75
2021/10/20 12:06:19;;;;;;;3.60;1.63;;;17.60;99.90;;;;;;5093915;28;20224;-75
2021/10/20 12:08:48;;;;;;;6.03;1.63;;;17.60;99.90;;;;;;5094203;28;20197;-75
2021/10/20 12:11:20;;;;;;;4.77;1.60;;;17.60;99.90;;;;;;5093780;28;20311;-75
2021/10/20 12:13:48;;;;;;;4.93;1.40;;;17.50;99.90;;;;;;5093686;28;20683;-75
2021/10/20 12:16:20;;;;;;;5.27;1.50;;;17.50;99.90;;;;;;5093995;28;20235;-75
2021/10/20 12:18:48;;;;;;;5.80;1.50;;;17.50;99.90;;;;;;5079945;28;20193;-75
2021/10/20 12:21:17;;;;;;;6.67;1.47;;;17.50;99.90;;;;;;5093795;28;20179;-75
2021/10/20 12:23:47;;;;;;;3.23;1.50;;;17.40;99.90;;;;;;5093600;28;20178;-75
2021/10/20 12:26:15;;;;;;;7.67;1.63;;;17.40;99.90;;;;;;5086034;28;20186;-75
2021/10/20 12:28:44;;;;;;;3.40;1.73;;;17.40;99.90;;;;;;5087465;28;20182;-75
2021/10/20 12:31:16;;;;;;;4.50;1.40;;;17.40;99.90;;;;;;5093473;28;20687;-75
2021/10/20 12:33:45;;;;;;;6.53;1.70;;;17.30;99.90;;;;;;5093909;28;20183;-75
2021/10/20 12:36:23;;;;;;;7.50;1.83;;;17.30;99.90;;;;;;5093358;28;20558;-75
2021/10/20 12:38:51;;;;;;;8.90;1.83;;;17.30;99.90;;;;;;5093957;28;20647;-75
2021/10/20 12:41:21;;;;;;;5.40;1.87;;;17.20;99.90;;;;;;5093212;28;20264;-75
2021/10/20 12:43:50;;;;;;;3.60;1.73;;;17.20;99.90;;;;;;5093233;28;20189;-75
2021/10/20 12:46:18;;;;;;;4.77;1.70;;;17.20;99.90;;;;;;5093472;28;20329;-75
2021/10/20 12:48:47;;;;;;;5.73;1.80;;;17.10;99.90;;;;;;5083597;28;20536;-75
2021/10/20 12:51:24;;;;;;;10.00;2.10;;;17.10;99.90;;;;;;5090642;28;20205;-76
2021/10/20 12:53:57;;;;;;;3.87;1.67;;;17.10;99.90;;;;;;5093425;28;20193;-75
2021/10/20 12:56:26;;;;;;;7.33;1.63;;;17.10;99.90;;;;;;5092820;28;20631;-75
2021/10/20 12:59:16;;;;;;;8.67;1.97;;;17.10;99.90;;;;;;5092290;28;20196;-75